Detall de PIREP

Printer-friendly versionPDF version

[2010/09/22 16:17:00]
Flight IATA:CT0001
Pilot Number:042
Company ICAO:CAT
Aircraft Type:B763/F
PAX:150
Departing Airport: LEBL
Destination Airport: LEAL
Alternate Airport:LEVC
Online: No
Route:LOTOS UM985 VLC
Flight Level:FL290
No Slew and time accel
No pause
Crash detect
Detect pilot in Cockpit between each 30 and 45 minutes
16:17 Zero fuel Weight: 244976 Lbs, Fuel Weight: 160474 Lbs
16:17 VATSIM:LEBL 221600Z 20005KT 170V240 9999 FEW020 24/18 Q1019 NOSIG
16:17 VATSIM:LEAL 221600Z 11006KT 070V140 9999 FEW030 26/20 Q1018 NOSIG
16:17 VOICE CATALONIAN
16:20 Parking Brakes off
16:32 Take-off
16:32 Take off Weight: 401786 Lbs
16:32 Wind: 213 @ 005 Knots Heading: 244
16:32 POS N41 17 51 E002 04 49
16:32 Gear Up: 181 Knots
16:32 Flaps:2 at 181 Knots
16:33 Flaps:1 at 168 Knots
16:34 Flaps:0 at 186 Knots
16:47 Wind:253@025 Knots Heading: 229 Ground Speed: 417 Knots Altitude 25157 ft
17:02 Wind:204@012 Knots Heading: 193 Ground Speed: 300 Knots Altitude 12919 ft
17:02 Flaps:1 at 239 Knots
17:03 Flaps:0 at 246 Knots
17:03 Flaps:1 at 246 Knots
17:03 Flaps:0 at 245 Knots
17:09 Flaps:1 at 240 Knots
17:10 Flaps:2 at 222 Knots
17:11 Flaps:3 at 209 Knots
17:12 Flaps:4 at 190 Knots
17:14 Flaps:5 at 178 Knots
17:16 Flaps:6 at 164 Knots
17:16 Gear Down: 165 Knots
17:17 Wind:135@005 Knots Heading: 101 Ground Speed: 164 Knots Altitude 2280 ft
17:19 TouchDown:Rate -116 ft/min Speed: 146 Knots
17:19 VATSIM:LEAL 221700Z 13005KT 100V160 9999 FEW030 25/20 Q1018 NOSIG
17:19 Land
17:19 Wind:133@005 Knots
17:19 Heading: 099
17:19 Flight Duration: 00:47
17:19 Landing Weight: 389200 Lbs
17:19 POS N38 16 54 W000 33 22
17:21 Parking brakes on
17:21 Block to Block Duration: 01:01
17:21 Final Fuel: 143920 Lbls
17:21 Spent Fuel: 16554 Lbls
17:21 Flight Length: 236 NM
17:21 TOD Land Length: 236 NM

Exportar CSV

Powered by Drupal - Modified by Danger4k